createdAt,value
2019-06-08T00:00:25.865Z,67.00
2019-06-08T00:02:58.186Z,67.10
2019-06-08T00:05:27.515Z,66.80
2019-06-08T00:07:57.869Z,67.00
2019-06-08T00:10:27.677Z,67.20
2019-06-08T00:12:58.729Z,67.60
2019-06-08T00:15:28.736Z,68.20
2019-06-08T00:18:07.824Z,68.00
2019-06-08T00:20:44.326Z,68.30
2019-06-08T00:23:14.091Z,68.10
2019-06-08T00:25:43.393Z,68.10
2019-06-08T00:28:14.140Z,67.50
2019-06-08T00:30:44.169Z,67.90
2019-06-08T00:33:14.304Z,68.10
2019-06-08T00:35:44.108Z,68.70
2019-06-08T00:38:14.762Z,68.60
2019-06-08T00:40:45.781Z,68.40
2019-06-08T00:43:15.102Z,68.40
2019-06-08T00:45:56.567Z,68.20
2019-06-08T00:48:26.031Z,67.80
2019-06-08T00:50:58.205Z,67.80
2019-06-08T00:53:28.033Z,68.20
2019-06-08T00:55:58.171Z,68.40
2019-06-08T00:58:28.129Z,68.90
2019-06-08T01:00:58.292Z,68.90
2019-06-08T01:03:31.910Z,69.00
2019-06-08T01:06:04.461Z,69.20
2019-06-08T01:08:34.122Z,69.10
2019-06-08T01:11:03.328Z,69.40
2019-06-08T01:13:32.960Z,69.50
2019-06-08T01:16:02.039Z,69.00
2019-06-08T01:18:32.415Z,69.50
2019-06-08T01:21:02.378Z,69.40
2019-06-08T01:23:33.351Z,68.50
2019-06-08T01:26:03.223Z,68.80
2019-06-08T01:28:32.767Z,68.70
2019-06-08T01:31:04.969Z,67.20
2019-06-08T01:33:34.490Z,64.20
2019-06-08T01:36:07.946Z,61.70
2019-06-08T01:38:39.386Z,60.60
2019-06-08T01:41:12.603Z,59.10
2019-06-08T01:43:41.908Z,58.40
2019-06-08T01:46:14.624Z,58.70
2019-06-08T01:48:47.588Z,58.60
2019-06-08T01:51:17.238Z,58.60
2019-06-08T01:53:48.543Z,58.60
2019-06-08T01:56:22.879Z,57.60
2019-06-08T01:58:54.109Z,57.30
2019-06-08T02:01:23.984Z,57.00
2019-06-08T02:03:53.717Z,56.20
2019-06-08T02:06:24.188Z,56.40
2019-06-08T02:08:55.245Z,56.30
2019-06-08T02:11:25.022Z,56.00
2019-06-08T02:13:54.694Z,55.80
2019-06-08T02:16:25.594Z,55.80
2019-06-08T02:18:55.779Z,55.90
2019-06-08T02:21:24.911Z,55.90
2019-06-08T02:23:56.359Z,56.10
2019-06-08T02:26:27.570Z,56.10
2019-06-08T02:28:56.577Z,55.40
2019-06-08T02:31:25.995Z,55.70
2019-06-08T02:33:56.052Z,56.10
2019-06-08T02:36:25.594Z,56.00
2019-06-08T02:38:55.674Z,56.20
2019-06-08T02:41:25.437Z,56.00
2019-06-08T02:43:54.851Z,56.40
2019-06-08T02:46:24.031Z,56.80
2019-06-08T02:49:03.151Z,56.70
2019-06-08T02:51:25.087Z,56.40
2019-06-08T02:53:54.177Z,56.60
2019-06-08T02:56:26.237Z,56.80
2019-06-08T02:58:59.661Z,56.60
2019-06-08T03:01:35.929Z,57.30
2019-06-08T03:04:05.839Z,56.20
2019-06-08T03:06:39.390Z,56.10
2019-06-08T03:09:09.694Z,56.00
2019-06-08T03:11:41.292Z,56.20
2019-06-08T03:14:11.070Z,56.70
2019-06-08T03:16:41.627Z,55.40
2019-06-08T03:19:21.683Z,55.60
2019-06-08T03:21:42.650Z,56.80
2019-06-08T03:24:13.655Z,55.90
2019-06-08T03:26:44.167Z,56.20
2019-06-08T03:29:14.619Z,56.50
2019-06-08T03:31:55.134Z,56.10
2019-06-08T03:34:16.747Z,56.20
2019-06-08T03:36:55.408Z,56.30
2019-06-08T03:39:20.139Z,56.60
2019-06-08T03:41:50.011Z,57.00
2019-06-08T03:44:19.371Z,57.30
2019-06-08T03:46:49.138Z,57.20
2019-06-08T03:49:18.650Z,57.50
2019-06-08T03:51:48.993Z,57.60
2019-06-08T03:54:21.853Z,57.20
2019-06-08T03:56:54.129Z,57.30
2019-06-08T03:59:23.977Z,57.90
2019-06-08T04:01:52.326Z,57.80
2019-06-08T04:04:20.791Z,57.90
2019-06-08T04:06:50.207Z,58.10
2019-06-08T04:09:21.825Z,57.30
2019-06-08T04:11:51.425Z,58.10
2019-06-08T04:14:20.778Z,58.50
2019-06-08T04:16:51.472Z,58.60
2019-06-08T04:19:22.016Z,58.60
2019-06-08T04:21:51.300Z,58.30
2019-06-08T04:24:20.792Z,58.50
2019-06-08T04:26:51.075Z,58.50
2019-06-08T04:29:20.352Z,58.70
2019-06-08T04:31:50.174Z,58.00
2019-06-08T04:34:23.194Z,58.20
2019-06-08T04:36:52.619Z,58.40
2019-06-08T04:39:21.821Z,58.40
2019-06-08T04:41:52.528Z,58.50
2019-06-08T04:44:21.597Z,58.50
2019-06-08T04:46:55.334Z,59.00
2019-06-08T04:49:24.561Z,59.10
2019-06-08T04:51:54.389Z,59.00
2019-06-08T04:54:25.906Z,58.90
2019-06-08T04:57:01.209Z,58.70
2019-06-08T04:59:31.161Z,59.00
2019-06-08T05:02:04.003Z,59.40
2019-06-08T05:04:35.104Z,58.70
2019-06-08T05:07:04.223Z,59.10
2019-06-08T05:09:34.289Z,59.20
2019-06-08T05:12:03.911Z,59.30
2019-06-08T05:14:34.062Z,59.10
2019-06-08T05:17:04.090Z,59.50
2019-06-08T05:19:33.747Z,59.80
2019-06-08T05:22:03.259Z,59.70
2019-06-08T05:24:32.606Z,59.70
2019-06-08T05:27:02.291Z,60.00
2019-06-08T05:29:31.510Z,60.00
2019-06-08T05:32:01.427Z,59.90
2019-06-08T05:34:32.957Z,59.80
2019-06-08T05:37:02.081Z,59.90
2019-06-08T05:39:31.517Z,60.30
2019-06-08T05:42:01.608Z,60.60
2019-06-08T05:44:31.913Z,60.40
2019-06-08T05:47:01.330Z,60.80
2019-06-08T05:49:30.785Z,61.20
2019-06-08T05:51:59.923Z,60.60
2019-06-08T05:54:30.701Z,59.70
2019-06-08T05:57:00.064Z,59.40
2019-06-08T05:59:29.739Z,61.00
2019-06-08T06:01:59.372Z,60.30
2019-06-08T06:04:30.702Z,60.70
2019-06-08T06:07:01.733Z,61.20
2019-06-08T06:09:31.373Z,60.60
2019-06-08T06:12:02.566Z,60.60
2019-06-08T06:14:36.905Z,60.50
2019-06-08T06:17:05.328Z,61.00
2019-06-08T06:19:45.176Z,60.80
2019-06-08T06:22:15.269Z,61.50
2019-06-08T06:24:45.675Z,61.80
2019-06-08T06:27:14.768Z,61.80
2019-06-08T06:29:45.373Z,62.10
2019-06-08T06:32:14.886Z,62.50
2019-06-08T06:34:45.818Z,62.60
2019-06-08T06:37:16.035Z,62.40
2019-06-08T06:39:45.915Z,62.90
2019-06-08T06:42:15.260Z,63.00
2019-06-08T06:44:54.521Z,63.00
2019-06-08T06:47:23.076Z,63.30
2019-06-08T06:49:52.613Z,63.10
2019-06-08T06:52:22.194Z,62.60
2019-06-08T06:54:53.256Z,62.80
2019-06-08T06:57:23.386Z,62.10
2019-06-08T06:59:52.517Z,62.10
2019-06-08T07:02:21.263Z,62.30
2019-06-08T07:04:49.946Z,62.80
2019-06-08T07:07:20.615Z,62.30
2019-06-08T07:09:48.992Z,62.30
2019-06-08T07:12:19.236Z,62.70
2019-06-08T07:14:47.377Z,61.90
2019-06-08T07:17:15.499Z,62.30
2019-06-08T07:19:44.325Z,63.10
2019-06-08T07:22:12.763Z,63.50
2019-06-08T07:24:41.158Z,63.20
2019-06-08T07:27:09.297Z,62.80
2019-06-08T07:29:40.481Z,61.40
2019-06-08T07:32:08.890Z,62.50
2019-06-08T07:34:37.548Z,62.70
2019-06-08T07:37:06.048Z,63.00
2019-06-08T07:39:34.307Z,63.50
2019-06-08T07:42:02.401Z,63.70
2019-06-08T07:44:31.060Z,63.30
2019-06-08T07:47:00.138Z,61.10
2019-06-08T07:49:30.063Z,60.60
2019-06-08T07:52:09.890Z,61.00
2019-06-08T07:54:32.405Z,61.90
2019-06-08T07:57:00.560Z,61.10
2019-06-08T07:59:29.026Z,61.00
2019-06-08T08:01:58.391Z,61.10
2019-06-08T08:04:26.911Z,61.00
2019-06-08T08:06:56.589Z,60.50
2019-06-08T08:09:25.468Z,60.50
2019-06-08T08:11:57.154Z,60.70
2019-06-08T08:14:25.702Z,60.00
2019-06-08T08:16:57.208Z,59.90
2019-06-08T08:19:25.995Z,59.20
2019-06-08T08:21:54.969Z,59.40
2019-06-08T08:24:27.094Z,59.20
2019-06-08T08:26:57.382Z,58.90
2019-06-08T08:29:28.118Z,59.60
2019-06-08T08:32:00.070Z,59.70
2019-06-08T08:34:31.685Z,56.90
2019-06-08T08:37:06.197Z,56.40
2019-06-08T08:39:37.713Z,56.00
2019-06-08T08:42:08.424Z,55.30
2019-06-08T08:44:38.725Z,55.90
2019-06-08T08:47:08.423Z,56.20
2019-06-08T08:49:38.324Z,56.60
2019-06-08T08:52:11.156Z,54.40
2019-06-08T08:54:42.539Z,54.10
2019-06-08T08:57:10.897Z,53.20
2019-06-08T08:59:40.315Z,50.90
2019-06-08T09:02:11.436Z,50.70
2019-06-08T09:04:41.510Z,51.50
2019-06-08T09:07:12.443Z,50.00
2019-06-08T09:09:42.209Z,49.50
2019-06-08T09:12:11.557Z,48.70
2019-06-08T09:14:41.556Z,48.70
2019-06-08T09:17:11.673Z,50.10
2019-06-08T09:19:41.282Z,48.30
2019-06-08T09:22:10.714Z,49.70
2019-06-08T09:24:40.105Z,49.00
2019-06-08T09:27:09.294Z,48.80
2019-06-08T09:29:39.005Z,47.70
2019-06-08T09:32:08.588Z,47.40
2019-06-08T09:34:41.390Z,46.90
2019-06-08T09:37:13.453Z,46.10
2019-06-08T09:39:43.693Z,45.60
2019-06-08T09:42:13.313Z,46.50
2019-06-08T09:44:43.293Z,46.00
2019-06-08T09:47:13.566Z,46.70
2019-06-08T09:49:48.004Z,44.20
2019-06-08T09:52:18.363Z,43.00
2019-06-08T09:54:49.280Z,43.70
2019-06-08T09:57:19.039Z,43.50
2019-06-08T09:59:49.021Z,44.30
2019-06-08T10:02:19.269Z,44.80
2019-06-08T10:04:48.706Z,45.10
2019-06-08T10:07:19.077Z,44.00
2019-06-08T10:09:51.118Z,43.90
2019-06-08T10:12:21.592Z,42.90
2019-06-08T10:14:51.169Z,41.50
2019-06-08T10:17:21.717Z,43.00
2019-06-08T10:19:51.220Z,42.70
2019-06-08T10:22:20.606Z,43.20
2019-06-08T10:24:51.763Z,41.70
2019-06-08T10:27:22.137Z,41.20
2019-06-08T10:29:52.006Z,39.80
2019-06-08T10:32:23.344Z,38.30
2019-06-08T10:35:00.335Z,37.40
2019-06-08T10:37:30.446Z,38.50
2019-06-08T10:40:02.564Z,38.80
2019-06-08T10:42:32.712Z,39.80
2019-06-08T10:45:08.056Z,39.60
2019-06-08T10:47:34.294Z,40.10
2019-06-08T10:50:12.780Z,37.80
2019-06-08T10:52:38.992Z,38.00
2019-06-08T10:55:11.293Z,36.80
2019-06-08T10:57:38.712Z,36.80
2019-06-08T11:00:18.261Z,39.10
2019-06-08T11:02:40.806Z,39.10
2019-06-08T11:05:28.144Z,38.30
2019-06-08T11:08:00.194Z,37.50
2019-06-08T11:10:28.844Z,38.70
2019-06-08T11:13:03.071Z,38.10
2019-06-08T11:15:30.136Z,37.70
2019-06-08T11:18:02.289Z,38.10
2019-06-08T11:20:30.669Z,38.20
2019-06-08T11:23:02.097Z,38.10
2019-06-08T11:25:31.463Z,37.80
2019-06-08T11:28:01.857Z,36.50
2019-06-08T11:30:43.345Z,37.00
2019-06-08T11:33:16.506Z,36.10
2019-06-08T11:35:49.572Z,32.10
2019-06-08T11:38:20.235Z,34.40
2019-06-08T11:40:50.115Z,32.80
2019-06-08T11:43:20.297Z,32.70
2019-06-08T11:45:50.154Z,32.80
2019-06-08T11:48:19.946Z,32.50
2019-06-08T11:50:49.631Z,32.90
2019-06-08T11:53:18.964Z,32.70
2019-06-08T11:55:51.169Z,34.50
2019-06-08T11:58:22.998Z,34.60
2019-06-08T12:00:54.606Z,33.30
2019-06-08T12:03:24.322Z,33.60
2019-06-08T12:05:53.966Z,34.00
2019-06-08T12:08:23.392Z,34.00
2019-06-08T12:10:53.070Z,33.10
2019-06-08T12:13:22.143Z,32.00
2019-06-08T12:15:51.536Z,32.00
2019-06-08T12:18:20.630Z,32.00
2019-06-08T12:20:49.773Z,32.30
2019-06-08T12:23:19.673Z,32.60
2019-06-08T12:25:50.018Z,31.60
2019-06-08T12:28:22.645Z,31.60
2019-06-08T12:30:55.240Z,31.70
2019-06-08T12:33:24.999Z,31.00
2019-06-08T12:35:59.103Z,31.40
2019-06-08T12:38:32.207Z,32.10
2019-06-08T12:41:02.784Z,32.70
2019-06-08T12:43:32.010Z,32.40
2019-06-08T12:46:01.707Z,33.20
2019-06-08T12:48:31.547Z,33.20
2019-06-08T12:51:00.818Z,32.30
2019-06-08T12:53:30.997Z,33.10
2019-06-08T12:56:05.679Z,32.80
2019-06-08T12:58:35.643Z,32.50
2019-06-08T13:01:12.544Z,33.80
2019-06-08T13:03:48.457Z,34.90
2019-06-08T13:06:21.528Z,35.40
2019-06-08T13:08:54.835Z,35.30
2019-06-08T13:11:30.778Z,34.50
2019-06-08T13:14:00.855Z,34.20
2019-06-08T13:16:30.856Z,32.30
2019-06-08T13:19:01.055Z,31.20
2019-06-08T13:21:35.162Z,33.30
2019-06-08T13:24:05.730Z,32.60
2019-06-08T13:26:35.418Z,32.60
2019-06-08T13:29:13.681Z,32.70
2019-06-08T13:31:44.295Z,32.50
2019-06-08T13:34:22.349Z,32.10
2019-06-08T13:36:52.469Z,31.80
2019-06-08T13:39:23.286Z,31.90
2019-06-08T13:41:55.106Z,30.60
2019-06-08T13:44:27.866Z,31.20
2019-06-08T13:46:58.005Z,30.80
2019-06-08T13:49:33.076Z,30.80
2019-06-08T13:52:04.151Z,31.40
2019-06-08T13:54:38.027Z,31.90
2019-06-08T13:57:32.945Z,30.80
2019-06-08T14:00:03.949Z,31.30
2019-06-08T14:02:39.981Z,32.00
2019-06-08T14:05:14.058Z,31.80
2019-06-08T14:07:48.027Z,32.90
2019-06-08T14:10:22.931Z,32.60
2019-06-08T14:12:58.660Z,32.50
2019-06-08T14:15:28.674Z,32.30
2019-06-08T14:17:59.335Z,32.00
2019-06-08T14:20:54.640Z,32.20
2019-06-08T14:23:26.276Z,31.50
2019-06-08T14:25:59.412Z,31.40
2019-06-08T14:28:33.157Z,32.20
2019-06-08T14:31:08.112Z,31.40
2019-06-08T14:33:39.645Z,32.30
2019-06-08T14:36:33.942Z,31.70
2019-06-08T14:39:10.423Z,32.70
2019-06-08T14:41:50.360Z,33.00
2019-06-08T14:44:21.412Z,32.50
2019-06-08T14:46:57.986Z,32.90
2019-06-08T14:49:34.533Z,31.60
2019-06-08T14:52:00.341Z,32.20
2019-06-08T14:54:34.684Z,33.00
2019-06-08T14:57:02.804Z,33.40
2019-06-08T14:59:32.016Z,33.30
2019-06-08T15:05:00.612Z,33.60
2019-06-08T15:07:32.845Z,32.60
2019-06-08T15:10:02.889Z,33.20
2019-06-08T15:12:32.948Z,33.60
2019-06-08T15:15:03.387Z,33.00
2019-06-08T15:17:43.055Z,32.50
2019-06-08T15:20:13.872Z,33.70
2019-06-08T15:22:46.553Z,33.30
2019-06-08T15:25:22.535Z,33.70
2019-06-08T15:28:12.937Z,33.90
2019-06-08T15:30:49.070Z,33.00
2019-06-08T15:44:03.371Z,31.90
2019-06-08T15:47:08.059Z,32.70
2019-06-08T15:49:43.642Z,33.70
2019-06-08T15:52:22.383Z,34.10
2019-06-08T15:58:50.430Z,35.10
2019-06-08T16:01:20.166Z,32.80
2019-06-08T16:03:52.506Z,33.70
2019-06-08T16:06:27.803Z,32.60
2019-06-08T16:08:59.187Z,32.60
2019-06-08T16:11:30.297Z,33.40
2019-06-08T16:14:00.480Z,32.30
2019-06-08T16:16:36.884Z,33.60
2019-06-08T16:19:12.466Z,33.60
2019-06-08T16:21:41.833Z,33.60
2019-06-08T16:24:11.945Z,33.30
2019-06-08T16:26:52.924Z,33.10
2019-06-08T16:29:15.266Z,33.00
2019-06-08T16:31:44.635Z,33.00
2019-06-08T16:34:14.568Z,33.10
2019-06-08T16:36:45.417Z,33.20
2019-06-08T16:39:17.139Z,33.10
2019-06-08T16:41:47.475Z,33.40
2019-06-08T16:44:17.333Z,33.50
2019-06-08T16:46:52.125Z,33.60
2019-06-08T16:49:24.008Z,33.40
2019-06-08T16:52:01.025Z,33.80
2019-06-08T16:54:32.803Z,34.40
2019-06-08T16:57:10.690Z,35.20
2019-06-08T16:59:40.802Z,36.40
2019-06-08T17:02:52.263Z,35.90
2019-06-08T17:05:22.440Z,36.00
2019-06-08T17:08:01.536Z,34.60
2019-06-08T17:10:36.966Z,35.50
2019-06-08T17:13:11.060Z,36.60
2019-06-08T17:15:43.920Z,36.00
2019-06-08T17:18:14.778Z,36.50
2019-06-08T17:20:44.694Z,37.40
2019-06-08T17:23:18.690Z,36.50
2019-06-08T17:25:52.597Z,36.90
2019-06-08T17:28:23.164Z,37.10
2019-06-08T17:30:52.733Z,37.10
2019-06-08T17:33:22.510Z,37.20
2019-06-08T17:35:54.212Z,36.50
2019-06-08T17:38:24.654Z,36.70
2019-06-08T17:40:54.631Z,37.30
2019-06-08T17:43:24.377Z,36.60
2019-06-08T17:45:53.766Z,36.80
2019-06-08T17:48:25.439Z,37.00
2019-06-08T17:50:56.505Z,37.10
2019-06-08T17:53:26.797Z,37.00
2019-06-08T17:55:56.809Z,36.60
2019-06-08T17:58:26.275Z,36.50
2019-06-08T18:00:55.985Z,37.60
2019-06-08T18:03:57.463Z,37.40
2019-06-08T18:06:33.699Z,37.20
2019-06-08T18:09:07.892Z,37.70
2019-06-08T18:11:41.462Z,38.50
2019-06-08T18:14:14.131Z,38.30
2019-06-08T18:16:47.824Z,38.30
2019-06-08T18:22:34.264Z,38.70
2019-06-08T18:25:07.596Z,38.70
2019-06-08T18:27:40.660Z,38.90
2019-06-08T18:30:11.816Z,39.70
2019-06-08T18:32:42.466Z,39.50
2019-06-08T18:35:14.777Z,38.90
2019-06-08T18:37:45.516Z,38.80
2019-06-08T18:40:17.878Z,39.00
2019-06-08T18:42:48.688Z,39.00
2019-06-08T18:45:20.035Z,39.50
2019-06-08T18:47:49.224Z,39.90
2019-06-08T18:50:19.734Z,39.90
2019-06-08T18:52:49.907Z,40.30
2019-06-08T18:55:21.139Z,40.10
2019-06-08T19:01:58.001Z,40.60
2019-06-08T19:04:33.236Z,41.00
2019-06-08T19:07:07.704Z,41.40
2019-06-08T19:09:38.762Z,41.50
2019-06-08T19:12:22.374Z,41.50
2019-06-08T19:14:58.554Z,41.40
2019-06-08T19:17:28.547Z,41.60
2019-06-08T19:19:58.618Z,41.20
2019-06-08T19:22:33.334Z,41.20
2019-06-08T19:25:04.844Z,41.50
2019-06-08T19:27:38.887Z,41.60
2019-06-08T19:30:06.668Z,41.70
2019-06-08T19:32:38.923Z,41.40
2019-06-08T19:36:03.617Z,41.40
2019-06-08T19:38:33.231Z,41.50
2019-06-08T19:41:03.612Z,41.50
2019-06-08T19:43:33.396Z,41.30
2019-06-08T19:46:03.461Z,41.50
2019-06-08T19:48:34.424Z,41.70
2019-06-08T19:51:07.571Z,41.60
2019-06-08T19:53:43.409Z,41.50
2019-06-08T19:56:08.692Z,41.70
2019-06-08T19:58:55.059Z,41.70
2019-06-08T20:01:12.370Z,41.70
2019-06-08T20:03:42.673Z,41.90
2019-06-08T20:06:14.296Z,41.80
2019-06-08T20:08:45.022Z,42.10
2019-06-08T20:11:14.601Z,42.20
2019-06-08T20:13:43.725Z,42.50
2019-06-08T20:16:13.289Z,42.60
2019-06-08T20:18:48.634Z,42.70
2019-06-08T20:21:19.199Z,42.90
2019-06-08T20:23:50.916Z,43.00
2019-06-08T20:26:20.460Z,43.20
2019-06-08T20:28:57.713Z,43.50
2019-06-08T20:31:28.654Z,43.90
2019-06-08T20:34:09.044Z,43.90
2019-06-08T20:36:47.050Z,44.00
2019-06-08T20:39:18.157Z,44.00
2019-06-08T20:41:49.819Z,44.00
2019-06-08T20:44:20.844Z,43.70
2019-06-08T20:46:52.458Z,43.70
2019-06-08T20:49:21.672Z,44.20
2019-06-08T20:51:53.996Z,43.50
2019-06-08T20:54:25.036Z,43.40
2019-06-08T20:56:54.457Z,43.40
2019-06-08T20:59:29.983Z,43.70
2019-06-08T21:01:58.640Z,43.70
2019-06-08T21:04:27.813Z,43.60
2019-06-08T21:06:57.446Z,43.70
2019-06-08T21:09:29.841Z,43.90
2019-06-08T21:11:59.044Z,44.20
2019-06-08T21:14:28.261Z,44.50
2019-06-08T21:17:00.592Z,45.00
2019-06-08T21:19:30.295Z,45.20
2019-06-08T21:22:18.349Z,45.00
2019-06-08T21:24:52.092Z,44.90
2019-06-08T21:27:20.197Z,45.30
2019-06-08T21:29:57.993Z,45.30
2019-06-08T21:32:21.736Z,45.70
2019-06-08T21:34:52.649Z,45.30
2019-06-08T21:37:22.522Z,45.40
2019-06-08T21:39:56.258Z,45.20
2019-06-08T21:42:23.405Z,45.10
2019-06-08T21:44:53.706Z,45.70
2019-06-08T21:47:27.166Z,45.40
2019-06-08T21:49:59.221Z,45.70
2019-06-08T21:52:27.735Z,46.20
2019-06-08T21:54:59.347Z,46.20
2019-06-08T21:57:28.859Z,46.00
2019-06-08T22:00:19.505Z,46.60
2019-06-08T22:02:30.591Z,46.70
2019-06-08T22:05:03.002Z,47.20
2019-06-08T22:07:31.242Z,47.60
2019-06-08T22:10:00.498Z,47.70
2019-06-08T22:12:31.105Z,47.80
2019-06-08T22:15:00.991Z,47.50
2019-06-08T22:17:30.641Z,46.70
2019-06-08T22:20:01.080Z,46.30
2019-06-08T22:22:30.398Z,46.60
2019-06-08T22:25:01.105Z,46.60
2019-06-08T22:27:30.594Z,46.30
2019-06-08T22:30:01.308Z,46.60
2019-06-08T22:32:30.711Z,47.00
2019-06-08T22:35:00.188Z,47.20
2019-06-08T22:37:29.196Z,47.10
2019-06-08T22:39:58.213Z,47.30
2019-06-08T22:42:29.104Z,47.60
2019-06-08T22:44:59.190Z,47.80
2019-06-08T22:47:27.781Z,47.70
2019-06-08T22:49:58.428Z,47.90
2019-06-08T22:52:27.707Z,47.50
2019-06-08T22:55:00.412Z,47.80
2019-06-08T22:57:27.831Z,47.50
2019-06-08T23:00:00.186Z,48.00
2019-06-08T23:02:27.809Z,47.90
2019-06-08T23:05:01.317Z,48.20
2019-06-08T23:07:32.392Z,48.30
2019-06-08T23:10:00.073Z,48.00
2019-06-08T23:12:31.007Z,47.80
2019-06-08T23:15:00.618Z,47.70
2019-06-08T23:17:28.917Z,47.90
2019-06-08T23:19:57.855Z,47.90
2019-06-08T23:22:27.786Z,48.40
2019-06-08T23:24:58.429Z,48.00
2019-06-08T23:27:27.156Z,47.80
2019-06-08T23:30:00.030Z,47.90
2019-06-08T23:32:28.145Z,48.00
2019-06-08T23:34:58.663Z,48.00
2019-06-08T23:37:30.949Z,48.00
2019-06-08T23:40:00.894Z,48.20
2019-06-08T23:42:29.606Z,48.30
2019-06-08T23:44:59.476Z,48.10
2019-06-08T23:47:28.578Z,48.10
2019-06-08T23:49:59.219Z,48.50
2019-06-08T23:52:27.312Z,48.50
2019-06-08T23:54:58.241Z,49.30
2019-06-08T23:57:27.487Z,49.40
2019-06-08T23:59:58.140Z,49.40
